createdAt,value
2023-02-22T00:01:08.414Z,263.23
2023-02-22T00:03:36.840Z,311.63
2023-02-22T00:06:07.083Z,286.38
2023-02-22T00:08:37.653Z,272.70
2023-02-22T00:11:09.707Z,332.63
2023-02-22T00:13:39.613Z,156.75
2023-02-22T00:16:08.554Z,127.68
2023-02-22T00:18:37.831Z,216.85
2023-02-22T00:21:10.695Z,175.52
2023-02-22T00:23:43.436Z,202.27
2023-02-22T00:26:13.541Z,113.70
2023-02-22T00:28:42.571Z,114.18
2023-02-22T00:31:10.993Z,214.50
2023-02-22T00:33:40.991Z,223.52
2023-02-22T00:36:11.480Z,125.05
2023-02-22T00:38:41.512Z,124.20
2023-02-22T00:41:10.128Z,137.52
2023-02-22T00:43:39.801Z,131.65
2023-02-22T00:46:08.053Z,168.68
2023-02-22T00:48:36.374Z,120.93
2023-02-22T00:51:04.895Z,136.25
2023-02-22T00:53:33.146Z,88.78
2023-02-22T00:56:01.700Z,53.08
2023-02-22T00:58:30.027Z,54.38
2023-02-22T01:21:45.388Z,95.80
2023-02-22T01:24:16.240Z,137.18
2023-02-22T01:26:45.492Z,171.90
2023-02-22T01:29:22.215Z,131.35
2023-02-22T01:31:55.089Z,91.88
2023-02-22T01:34:24.078Z,151.60
2023-02-22T01:36:53.689Z,143.73
2023-02-22T01:39:21.802Z,79.22
2023-02-22T01:41:50.326Z,78.57
2023-02-22T01:44:27.666Z,107.15
2023-02-22T01:46:56.125Z,172.50
2023-02-22T01:49:26.606Z,112.80
2023-02-22T01:52:00.681Z,191.77
2023-02-22T01:54:32.510Z,131.68
2023-02-22T01:57:06.241Z,115.38
2023-02-22T01:59:37.682Z,120.90
2023-02-22T02:02:06.543Z,121.50
2023-02-22T02:04:36.570Z,159.23
2023-02-22T02:07:09.105Z,157.95
2023-02-22T02:09:41.169Z,109.72
2023-02-22T02:12:12.279Z,131.02
2023-02-22T02:14:42.768Z,63.42
2023-02-22T02:17:14.049Z,77.22
2023-02-22T02:19:49.519Z,63.47
2023-02-22T02:22:45.926Z,57.15
2023-02-22T02:25:48.821Z,79.75
2023-02-22T02:28:45.703Z,79.70
2023-02-22T02:31:51.308Z,95.90
2023-02-22T02:34:28.943Z,54.35
2023-02-22T02:37:09.386Z,53.10
2023-02-22T02:39:44.925Z,53.58
2023-02-22T02:42:17.943Z,62.40
2023-02-22T02:44:50.723Z,106.57
2023-02-22T02:47:23.531Z,63.53
2023-02-22T02:49:57.151Z,55.63
2023-02-22T02:54:56.611Z,54.33
2023-02-22T02:57:24.959Z,47.38
2023-02-22T02:59:53.392Z,86.68
2023-02-22T03:02:45.913Z,60.25
2023-02-22T03:05:30.355Z,52.60
2023-02-22T03:08:07.696Z,52.53
2023-02-22T03:10:50.599Z,59.00
2023-02-22T03:13:28.949Z,130.93
2023-02-22T03:16:05.322Z,64.55
2023-02-22T03:18:41.837Z,50.65
2023-02-22T03:21:19.176Z,59.47
2023-02-22T03:23:52.403Z,66.07
2023-02-22T03:26:26.057Z,57.88
2023-02-22T03:28:57.147Z,57.78
2023-02-22T03:31:30.192Z,59.75
2023-02-22T03:34:03.822Z,58.90
2023-02-22T03:39:05.325Z,58.17
2023-02-22T03:41:38.903Z,54.20
2023-02-22T03:46:41.978Z,56.25
2023-02-22T03:49:14.982Z,61.38
2023-02-22T03:51:45.161Z,58.33
2023-02-22T03:54:16.515Z,63.55
2023-02-22T03:56:50.725Z,61.97
2023-02-22T03:59:19.622Z,62.88
2023-02-22T04:01:47.832Z,59.35
2023-02-22T04:04:16.492Z,64.15
2023-02-22T04:06:48.018Z,61.17
2023-02-22T04:09:16.558Z,60.97
2023-02-22T04:11:45.487Z,58.22
2023-02-22T04:14:14.193Z,60.58
2023-02-22T04:16:42.461Z,59.30
2023-02-22T04:19:10.920Z,59.42
2023-02-22T04:21:39.257Z,62.20
2023-02-22T04:24:09.095Z,58.90
2023-02-22T04:26:37.644Z,57.97
2023-02-22T04:29:06.266Z,60.97
2023-02-22T04:31:34.701Z,54.83
2023-02-22T04:34:03.632Z,55.05
2023-02-22T04:36:32.885Z,62.33
2023-02-22T04:39:01.417Z,66.55
2023-02-22T04:41:31.740Z,65.45
2023-02-22T04:43:59.934Z,59.15
2023-02-22T04:46:28.172Z,58.80
2023-02-22T04:48:57.928Z,54.67
2023-02-22T04:51:26.557Z,59.58
2023-02-22T04:53:54.907Z,56.13
2023-02-22T04:56:23.320Z,52.35
2023-02-22T04:58:53.019Z,56.28
2023-02-22T05:01:21.270Z,53.35
2023-02-22T05:03:49.594Z,53.08
2023-02-22T05:06:20.092Z,52.25
2023-02-22T05:08:48.414Z,55.95
2023-02-22T05:11:16.806Z,59.17
2023-02-22T05:13:45.252Z,50.85
2023-02-22T05:16:15.317Z,51.22
2023-02-22T05:18:43.645Z,53.72
2023-02-22T05:21:13.647Z,51.47
2023-02-22T05:23:41.927Z,55.90
2023-02-22T05:26:11.801Z,55.58
2023-02-22T05:28:40.241Z,52.45
2023-02-22T05:31:08.865Z,51.90
2023-02-22T05:33:39.704Z,51.45
2023-02-22T05:36:09.037Z,51.25
2023-02-22T05:38:43.678Z,50.83
2023-02-22T05:41:14.096Z,50.60
2023-02-22T05:43:43.042Z,50.78
2023-02-22T05:46:11.476Z,47.75
2023-02-22T05:48:41.042Z,50.03
2023-02-22T05:51:09.752Z,48.08
2023-02-22T05:53:38.603Z,46.33
2023-02-22T05:56:07.334Z,48.42
2023-02-22T05:58:35.521Z,46.83
2023-02-22T06:01:03.887Z,48.60
2023-02-22T06:03:32.059Z,45.95
2023-02-22T06:06:01.541Z,43.55
2023-02-22T06:08:29.806Z,46.53
2023-02-22T06:10:58.024Z,43.45
2023-02-22T06:13:26.239Z,45.13
2023-02-22T06:15:54.412Z,45.40
2023-02-22T06:18:22.813Z,48.20
2023-02-22T06:20:51.048Z,47.22
2023-02-22T06:23:20.619Z,43.75
2023-02-22T06:25:49.438Z,46.58
2023-02-22T06:28:17.706Z,46.17
2023-02-22T06:30:46.186Z,48.90
2023-02-22T06:33:14.582Z,44.92
2023-02-22T06:35:42.969Z,44.88
2023-02-22T06:38:11.171Z,45.40
2023-02-22T06:40:40.786Z,40.33
2023-02-22T06:43:10.841Z,49.20
2023-02-22T06:45:39.066Z,44.53
2023-02-22T06:48:07.637Z,43.20
2023-02-22T06:50:36.240Z,45.65
2023-02-22T06:53:05.049Z,43.83
2023-02-22T06:55:35.134Z,44.70
2023-02-22T06:58:06.039Z,41.88
2023-02-22T07:00:34.908Z,41.90
2023-02-22T07:03:05.450Z,44.22
2023-02-22T07:05:33.775Z,41.00
2023-02-22T07:08:07.312Z,41.45
2023-02-22T07:10:37.093Z,40.70
2023-02-22T07:13:08.763Z,43.05
2023-02-22T07:15:37.185Z,44.08
2023-02-22T07:18:05.840Z,38.83
2023-02-22T07:20:34.148Z,41.42
2023-02-22T07:23:02.774Z,39.60
2023-02-22T07:25:31.160Z,39.42
2023-02-22T07:27:59.888Z,40.38
2023-02-22T07:30:31.716Z,40.97
2023-02-22T07:33:02.965Z,42.30
2023-02-22T07:35:32.620Z,38.60
2023-02-22T07:38:01.322Z,40.40
2023-02-22T07:40:30.406Z,39.05
2023-02-22T07:43:00.586Z,40.40
2023-02-22T07:45:32.063Z,39.70
2023-02-22T07:48:01.542Z,38.65
2023-02-22T07:50:32.264Z,41.08
2023-02-22T07:53:02.321Z,40.67
2023-02-22T07:55:32.089Z,42.05
2023-02-22T07:58:02.032Z,34.53
2023-02-22T08:00:33.517Z,37.80
2023-02-22T08:03:02.427Z,63.00
2023-02-22T08:05:32.256Z,42.90
2023-02-22T08:08:00.750Z,82.95
2023-02-22T08:10:29.411Z,39.25
2023-02-22T08:12:57.760Z,37.90
2023-02-22T08:15:29.759Z,37.03
2023-02-22T08:18:01.011Z,36.42
2023-02-22T08:20:30.442Z,38.50
2023-02-22T08:22:59.768Z,37.47
2023-02-22T08:25:30.008Z,32.08
2023-02-22T08:28:01.487Z,38.47
2023-02-22T08:30:31.290Z,31.40
2023-02-22T08:33:02.613Z,34.78
2023-02-22T08:35:32.888Z,33.05
2023-02-22T08:38:03.054Z,31.83
2023-02-22T08:40:35.805Z,34.38
2023-02-22T08:43:04.858Z,34.87
2023-02-22T08:45:33.438Z,31.67
2023-02-22T08:48:03.794Z,32.10
2023-02-22T08:50:34.605Z,32.67
2023-02-22T08:53:04.335Z,43.00
2023-02-22T08:55:35.341Z,53.38
2023-02-22T08:58:04.499Z,33.17
2023-02-22T09:00:34.459Z,32.70
2023-02-22T09:03:05.041Z,31.92
2023-02-22T09:05:33.754Z,31.00
2023-02-22T09:08:02.717Z,33.17
2023-02-22T09:10:33.176Z,33.28
2023-02-22T09:13:02.341Z,30.30
2023-02-22T09:15:31.482Z,31.90
2023-02-22T09:17:59.995Z,29.80
2023-02-22T09:20:30.468Z,31.63
2023-02-22T09:23:03.069Z,29.88
2023-02-22T09:25:31.441Z,33.05
2023-02-22T09:27:59.615Z,35.53
2023-02-22T09:30:32.549Z,30.70
2023-02-22T09:33:03.829Z,32.75
2023-02-22T09:35:36.598Z,33.88
2023-02-22T09:38:07.377Z,36.60
2023-02-22T09:40:45.169Z,31.00
2023-02-22T09:43:36.618Z,38.67
2023-02-22T09:46:13.979Z,32.80
2023-02-22T09:48:58.987Z,30.92
2023-02-22T09:51:35.972Z,31.42
2023-02-22T09:54:07.565Z,34.13
2023-02-22T09:56:36.939Z,33.90
2023-02-22T09:59:08.610Z,33.58
2023-02-22T10:01:42.863Z,33.05
2023-02-22T10:04:19.593Z,36.05
2023-02-22T10:07:06.290Z,36.10
2023-02-22T10:09:42.717Z,36.92
2023-02-22T10:12:16.396Z,36.75
2023-02-22T10:14:52.591Z,36.47
2023-02-22T10:17:30.999Z,36.80
2023-02-22T10:20:22.178Z,35.53
2023-02-22T10:23:09.264Z,38.40
2023-02-22T10:25:40.099Z,40.03
2023-02-22T10:28:14.915Z,36.53
2023-02-22T10:30:49.355Z,38.08
2023-02-22T10:33:22.576Z,37.05
2023-02-22T10:35:53.741Z,39.75
2023-02-22T10:38:25.331Z,38.95
2023-02-22T10:40:58.221Z,39.40
2023-02-22T10:43:27.452Z,43.00
2023-02-22T10:45:58.343Z,41.22
2023-02-22T10:48:30.440Z,42.28
2023-02-22T10:51:02.130Z,46.65
2023-02-22T10:53:34.888Z,42.75
2023-02-22T10:56:09.742Z,44.10
2023-02-22T11:01:27.338Z,43.47
2023-02-22T11:04:01.462Z,46.05
2023-02-22T11:06:30.087Z,46.00
2023-02-22T11:09:12.884Z,46.92
2023-02-22T11:11:42.830Z,46.70
2023-02-22T11:14:11.905Z,43.67
2023-02-22T11:16:43.667Z,42.80
2023-02-22T11:19:23.219Z,42.88
2023-02-22T11:21:53.327Z,44.85
2023-02-22T11:24:30.331Z,46.78
2023-02-22T11:27:04.934Z,46.90
2023-02-22T11:29:36.332Z,45.70
2023-02-22T11:32:14.493Z,47.78
2023-02-22T11:34:43.754Z,47.20
2023-02-22T11:37:30.784Z,50.95
2023-02-22T11:40:22.300Z,52.05
2023-02-22T11:43:07.976Z,49.00
2023-02-22T11:45:37.409Z,53.75
2023-02-22T11:48:10.614Z,50.50
2023-02-22T11:50:54.816Z,53.03
2023-02-22T11:53:33.044Z,47.10
2023-02-22T11:56:16.098Z,47.50
2023-02-22T11:58:49.451Z,46.97
2023-02-22T12:01:27.837Z,50.13
2023-02-22T12:04:25.033Z,47.45
2023-02-22T12:07:03.476Z,49.08
2023-02-22T12:09:40.825Z,46.85
2023-02-22T12:12:20.079Z,45.05
2023-02-22T12:14:58.174Z,48.47
2023-02-22T12:17:59.325Z,47.97
2023-02-22T12:20:33.105Z,51.47
2023-02-22T12:23:14.056Z,51.95
2023-02-22T12:25:49.388Z,54.90
2023-02-22T12:28:25.107Z,57.05
2023-02-22T12:31:00.639Z,57.72
2023-02-22T12:33:32.774Z,57.13
2023-02-22T12:36:02.295Z,56.03
2023-02-22T12:38:37.445Z,56.58
2023-02-22T12:41:11.727Z,57.97
2023-02-22T12:43:47.573Z,58.17
2023-02-22T12:46:21.450Z,60.45
2023-02-22T12:48:55.884Z,63.58
2023-02-22T12:51:30.837Z,61.70
2023-02-22T12:54:07.644Z,60.28
2023-02-22T12:56:40.546Z,62.08
2023-02-22T12:59:17.787Z,62.58
2023-02-22T13:01:51.806Z,62.72
2023-02-22T13:04:21.553Z,65.03
2023-02-22T13:07:02.664Z,65.90
2023-02-22T13:09:46.821Z,64.93
2023-02-22T13:12:20.291Z,71.28
2023-02-22T13:15:03.268Z,69.68
2023-02-22T13:17:40.471Z,68.97
2023-02-22T13:20:15.686Z,80.68
2023-02-22T13:22:49.397Z,74.82
2023-02-22T13:27:52.592Z,71.57
2023-02-22T13:30:28.627Z,76.38
2023-02-22T13:33:25.693Z,70.28
2023-02-22T13:36:17.687Z,72.65
2023-02-22T13:39:29.228Z,78.53
2023-02-22T13:42:10.798Z,80.60
2023-02-22T13:45:04.269Z,76.55
2023-02-22T13:48:02.329Z,87.05
2023-02-22T13:50:59.257Z,84.25
2023-02-22T13:53:33.023Z,83.65
2023-02-22T13:56:02.390Z,85.20
2023-02-22T13:58:31.133Z,88.32
2023-02-22T14:01:00.991Z,85.57
2023-02-22T14:03:41.928Z,82.90
2023-02-22T14:06:11.709Z,94.53
2023-02-22T14:08:50.030Z,93.07
2023-02-22T14:11:54.394Z,91.72
2023-02-22T14:14:22.787Z,89.95
2023-02-22T14:17:23.347Z,93.50
2023-02-22T14:20:35.178Z,98.50
2023-02-22T14:23:35.197Z,101.28
2023-02-22T14:26:13.509Z,96.22
2023-02-22T14:28:51.561Z,97.57
2023-02-22T14:31:35.639Z,100.85
2023-02-22T14:34:12.970Z,98.47
2023-02-22T14:36:51.729Z,101.35
2023-02-22T14:39:24.628Z,104.00
2023-02-22T14:42:01.869Z,104.28
2023-02-22T14:44:36.042Z,105.97
2023-02-22T14:47:07.304Z,113.18
2023-02-22T14:49:41.409Z,113.68
2023-02-22T14:52:21.475Z,115.35
2023-02-22T14:55:08.732Z,105.78
2023-02-22T14:57:48.465Z,111.10
2023-02-22T15:00:30.662Z,107.00
2023-02-22T15:03:00.840Z,113.05
2023-02-22T15:05:32.424Z,113.45
2023-02-22T15:08:03.896Z,114.38
2023-02-22T15:10:39.778Z,114.90
2023-02-22T15:13:16.752Z,115.00
2023-02-22T15:15:48.927Z,118.32
2023-02-22T15:18:25.356Z,112.05
2023-02-22T15:20:57.795Z,120.78
2023-02-22T15:23:40.074Z,114.82
2023-02-22T15:26:08.426Z,105.90
2023-02-22T15:28:38.408Z,113.93
2023-02-22T15:31:27.031Z,115.72
2023-02-22T15:33:55.800Z,106.32
2023-02-22T15:36:28.701Z,106.53
2023-02-22T15:38:58.470Z,106.07
2023-02-22T15:41:31.656Z,105.05
2023-02-22T15:44:17.792Z,100.22
2023-02-22T15:46:50.993Z,101.85
2023-02-22T15:49:23.278Z,101.65
2023-02-22T15:52:07.134Z,102.55
2023-02-22T15:54:46.896Z,106.95
2023-02-22T15:57:17.669Z,106.53
2023-02-22T15:59:50.011Z,105.20
2023-02-22T16:02:34.473Z,106.13
2023-02-22T16:05:06.794Z,111.70
2023-02-22T16:07:40.479Z,111.47
2023-02-22T16:10:22.420Z,106.65
2023-02-22T16:12:51.919Z,106.03
2023-02-22T16:15:20.388Z,96.85
2023-02-22T16:18:01.465Z,99.65
2023-02-22T16:20:35.546Z,101.93
2023-02-22T16:23:24.601Z,97.43
2023-02-22T16:26:21.697Z,98.40
2023-02-22T16:28:52.972Z,88.47
2023-02-22T16:31:25.322Z,97.32
2023-02-22T16:33:54.389Z,94.90
2023-02-22T16:36:37.857Z,88.03
2023-02-22T16:39:07.765Z,89.63
2023-02-22T16:41:37.553Z,93.13
2023-02-22T16:44:07.908Z,89.38
2023-02-22T16:46:38.127Z,87.07
2023-02-22T16:49:06.459Z,86.82
2023-02-22T16:51:41.017Z,84.95
2023-02-22T16:54:12.830Z,84.75
2023-02-22T16:56:43.056Z,83.45
2023-02-22T16:59:15.717Z,83.45
2023-02-22T17:01:44.340Z,81.03
2023-02-22T17:04:17.863Z,83.18
2023-02-22T17:06:46.272Z,88.32
2023-02-22T17:09:15.349Z,85.93
2023-02-22T17:11:45.386Z,92.15
2023-02-22T17:14:19.032Z,90.35
2023-02-22T17:19:18.711Z,90.10
2023-02-22T17:21:47.395Z,89.70
2023-02-22T17:24:18.216Z,90.68
2023-02-22T17:26:47.979Z,91.35
2023-02-22T17:29:17.742Z,97.90
2023-02-22T17:31:49.591Z,90.55
2023-02-22T17:34:17.949Z,81.13
2023-02-22T17:36:46.390Z,85.95
2023-02-22T17:39:14.588Z,92.68
2023-02-22T17:41:42.770Z,100.40
2023-02-22T17:44:12.519Z,94.80
2023-02-22T17:46:41.942Z,93.50
2023-02-22T17:49:10.318Z,99.65
2023-02-22T17:51:41.377Z,98.60
2023-02-22T17:54:10.509Z,98.38
2023-02-22T17:56:38.786Z,94.85
2023-02-22T17:59:09.255Z,100.55
2023-02-22T18:01:39.107Z,110.90
2023-02-22T18:04:07.527Z,102.43
2023-02-22T18:06:38.174Z,107.43
2023-02-22T18:09:10.553Z,108.28
2023-02-22T18:11:41.220Z,104.43
2023-02-22T18:14:10.876Z,97.30
2023-02-22T18:16:41.583Z,99.78
2023-02-22T18:19:10.104Z,99.65
2023-02-22T18:21:38.766Z,98.47
2023-02-22T18:24:07.873Z,104.72
2023-02-22T18:26:39.105Z,104.43
2023-02-22T18:29:07.552Z,105.18
2023-02-22T18:31:35.870Z,102.60
2023-02-22T18:34:05.535Z,105.57
2023-02-22T18:36:33.786Z,107.22
2023-02-22T18:39:03.288Z,109.10
2023-02-22T18:41:31.573Z,116.05
2023-02-22T18:44:00.588Z,115.55
2023-02-22T18:46:30.484Z,122.57
2023-02-22T18:48:59.768Z,128.52
2023-02-22T18:51:30.681Z,122.25
2023-02-22T18:54:01.211Z,123.80
2023-02-22T18:56:30.932Z,126.43
2023-02-22T18:59:00.720Z,133.50
2023-02-22T19:01:29.787Z,132.80
2023-02-22T19:03:58.263Z,129.52
2023-02-22T19:06:26.592Z,139.38
2023-02-22T19:08:56.258Z,129.95
2023-02-22T19:11:25.862Z,127.15
2023-02-22T19:13:57.096Z,124.00
2023-02-22T19:16:27.422Z,126.60
2023-02-22T19:18:58.029Z,125.68
2023-02-22T19:21:27.478Z,129.75
2023-02-22T19:23:57.647Z,122.72
2023-02-22T19:26:27.554Z,128.10
2023-02-22T19:28:57.634Z,129.20
2023-02-22T19:31:30.358Z,136.18
2023-02-22T19:34:01.889Z,135.33
2023-02-22T19:36:30.290Z,135.50
2023-02-22T19:39:02.069Z,126.38
2023-02-22T19:41:31.723Z,130.68
2023-02-22T19:43:59.982Z,129.45
2023-02-22T19:46:28.554Z,126.65
2023-02-22T19:48:57.337Z,131.32
2023-02-22T19:51:28.006Z,127.30
2023-02-22T19:54:00.496Z,132.25
2023-02-22T19:56:30.884Z,125.35
2023-02-22T19:59:00.863Z,122.90
2023-02-22T20:01:33.130Z,127.57
2023-02-22T20:04:04.147Z,125.43
2023-02-22T20:06:35.782Z,127.38
2023-02-22T20:09:06.777Z,124.80
2023-02-22T20:11:35.487Z,130.90
2023-02-22T20:14:06.713Z,125.80
2023-02-22T20:16:36.055Z,119.95
2023-02-22T20:19:04.586Z,126.68
2023-02-22T20:21:36.670Z,120.38
2023-02-22T20:24:08.578Z,121.20
2023-02-22T20:26:38.602Z,108.40
2023-02-22T20:29:09.154Z,123.53
2023-02-22T20:31:38.214Z,123.18
2023-02-22T20:34:07.452Z,114.00
2023-02-22T20:36:37.161Z,112.75
2023-02-22T20:39:13.290Z,111.85
2023-02-22T20:41:43.612Z,120.45
2023-02-22T20:44:14.005Z,117.85
2023-02-22T20:46:42.916Z,124.03
2023-02-22T20:49:13.771Z,114.80
2023-02-22T20:51:42.263Z,112.30
2023-02-22T20:54:12.497Z,113.40
2023-02-22T20:56:42.696Z,106.03
2023-02-22T20:59:13.082Z,109.15
2023-02-22T21:01:42.477Z,109.47
2023-02-22T21:04:11.358Z,111.65
2023-02-22T21:06:40.405Z,102.85
2023-02-22T21:09:14.800Z,113.55
2023-02-22T21:11:43.744Z,109.95
2023-02-22T21:14:16.857Z,105.95
2023-02-22T21:16:46.473Z,112.40
2023-02-22T21:19:27.964Z,102.75
2023-02-22T21:21:57.962Z,103.45
2023-02-22T21:24:29.112Z,121.95
2023-02-22T21:26:59.198Z,104.32
2023-02-22T21:29:28.176Z,115.15
2023-02-22T21:31:56.989Z,104.45
2023-02-22T21:34:25.977Z,110.60
2023-02-22T21:36:54.548Z,113.18
2023-02-22T21:39:28.661Z,100.50
2023-02-22T21:42:02.150Z,101.75
2023-02-22T21:44:30.806Z,104.57
2023-02-22T21:46:59.137Z,102.40
2023-02-22T21:49:28.340Z,99.93
2023-02-22T21:51:56.670Z,111.90
2023-02-22T21:54:25.042Z,109.18
2023-02-22T21:56:54.532Z,104.07
2023-02-22T21:59:26.750Z,107.53
2023-02-22T22:01:56.690Z,104.65
2023-02-22T22:04:27.688Z,107.35
2023-02-22T22:06:57.796Z,105.60
2023-02-22T22:09:29.142Z,115.43
2023-02-22T22:11:59.244Z,113.20
2023-02-22T22:14:29.230Z,113.50
2023-02-22T22:16:59.444Z,119.68
2023-02-22T22:19:29.330Z,106.47
2023-02-22T22:21:58.001Z,109.55
2023-02-22T22:24:28.828Z,107.80
2023-02-22T22:27:02.303Z,105.78
2023-02-22T22:29:34.375Z,110.00
2023-02-22T22:32:03.426Z,94.50
2023-02-22T22:34:34.084Z,101.85
2023-02-22T22:37:03.029Z,100.47
2023-02-22T22:39:31.685Z,93.20
2023-02-22T22:42:00.020Z,89.43
2023-02-22T22:44:32.937Z,104.10
2023-02-22T22:47:05.512Z,96.25
2023-02-22T22:49:40.399Z,92.35
2023-02-22T22:52:09.133Z,99.20
2023-02-22T22:54:38.339Z,104.10
2023-02-22T22:57:06.616Z,96.65
2023-02-22T22:59:36.330Z,110.47
2023-02-22T23:02:10.863Z,90.90
2023-02-22T23:04:39.161Z,98.30
2023-02-22T23:07:07.658Z,107.18
2023-02-22T23:09:38.980Z,100.95
2023-02-22T23:12:09.842Z,99.72
2023-02-22T23:14:40.226Z,109.43
2023-02-22T23:17:15.318Z,101.53
2023-02-22T23:19:45.270Z,108.53
2023-02-22T23:22:14.447Z,109.57
2023-02-22T23:24:44.548Z,105.70
2023-02-22T23:27:12.890Z,104.20
2023-02-22T23:29:42.949Z,104.55
2023-02-22T23:32:14.442Z,101.75
2023-02-22T23:34:42.846Z,120.43
2023-02-22T23:37:14.032Z,109.68
2023-02-22T23:39:42.473Z,112.35
2023-02-22T23:42:10.884Z,105.90
2023-02-22T23:44:40.233Z,103.22
2023-02-22T23:47:09.842Z,102.45
2023-02-22T23:49:43.397Z,99.90
2023-02-22T23:52:16.128Z,95.85
2023-02-22T23:54:46.849Z,99.90
2023-02-22T23:57:17.656Z,94.60
2023-02-22T23:59:46.142Z,94.40
